Adrian, Michigan
Current Conditions -  °F | °C
As of 9:53 AM on Monday 22 Dec 2014 (Local Time) from KADG Reporting Station
Haze Haze  
Wind Chill: -6°   Ceiling: Unl
Heat Index: -2°   Visibility: 5mi
Dew Point: -3°   Wind: 8mph
Humidity: 89%   Direction: 120°ESE
Pressure: 30.07"   Gusts: NA
Location:  41.9°N, 84.04°W
Report Text: KADG 221453Z AUTO 12007KT 5SM BR CLR M02/M03 A3007 RMK AO2 SLP195 T10171033 58004
Loading
Personal Weather Stations






























Interactive Weather Map New forecast layout! Learn more

10-Day Weather Forecast

Advertisements
Track Severe Weather on mobile